No particular awareness of the weather is required.    There are no Weather-warnings


Meteo18 Weather Cam more information Meteo18 Weather Cam


Thunder radar more information blitzortung!


Rain radar more information rain snow radar


Visit our other weather sites:

Template documentation
and downloads

And another site



Weather Underground History page Text

Daily Summary for February 27, 2018 Units:  Both    English   Metric
« Previous Day
Next Day »
Daily Weekly Monthly Yearly Custom
  High: Low: Average:
Temperature: TemperatureC °F /  -17.8 °C -8.3 °F /  -22.4 °C -5.5 °F /  -20.8 °C
Dew Point: DewpointC °F /  -17.8 °C -13.2 °F /  -25.1 °C -12.2 °F /  -24.6 °C
Humidity: Humidity % 45 % 60 %
Wind Speed: WindSpeedKMH mph /  0 km/h - 11.5 mph /  18.5 km/h
Wind Gust: WindSpeedGustKMH mph /  0 km/h - -
Wind:- - East
Pressure: PressurehPa in /  0 hPa 1014.4 in /  34347.6 hPa -
Precipitation: 0.0 in /  0 mm    
Historical Graphs
 
 
Tabular Data for February 27, 2018
Time Temperature Dew Point Pressure Wind Wind Speed Wind Gust Humidity Rainfall Rate (Hourly)
TemperatureC °F /  -17.8 °C DewpointC °F /  -17.8 °C PressurehPa in /  0 hPa Calm     Humidity % HourlyPrecipMM in /  0 mm
00:01 -5.5 °F /  -20.8 °C -12.2 °F /  -24.6 °C 1018.8 in /  34496.6 hPa NNE 9.7 mph /  15.6 km/h 14.5 mph /  23.3 km/h 59 % 0.0 in /  0 mm
00:07 -5.5 °F /  -20.8 °C -12.5 °F /  -24.7 °C 1018.8 in /  34496.6 hPa NE 13.0 mph /  20.9 km/h 27.4 mph /  44.1 km/h 58 % 0.0 in /  0 mm
00:13 -5.6 °F /  -20.9 °C -12.3 °F /  -24.6 °C 1018.8 in /  34496.6 hPa NE 20.9 mph /  33.6 km/h 29.0 mph /  46.7 km/h 59 % 0.0 in /  0 mm
00:19 -5.6 °F /  -20.9 °C -12.1 °F /  -24.5 °C 1018.8 in /  34496.6 hPa NE 11.1 mph /  17.9 km/h 19.3 mph /  31.1 km/h 60 % 0.0 in /  0 mm
00:25 -5.7 °F /  -20.9 °C -12.2 °F /  -24.6 °C 1018.8 in /  34496.6 hPa North 7.9 mph /  12.7 km/h 24.1 mph /  38.8 km/h 60 % 0.0 in /  0 mm
00:31 -5.7 °F /  -20.9 °C -12.0 °F /  -24.4 °C 1018.8 in /  34496.6 hPa NE 13.0 mph /  20.9 km/h 25.7 mph /  41.4 km/h 61 % 0.0 in /  0 mm
00:37 -5.8 °F /  -21 °C -12.1 °F /  -24.5 °C 1018.8 in /  34496.6 hPa NE 17.7 mph /  28.5 km/h 24.1 mph /  38.8 km/h 61 % 0.0 in /  0 mm
00:43 -5.8 °F /  -21 °C -12.1 °F /  -24.5 °C 1018.8 in /  34496.6 hPa NE 17.7 mph /  28.5 km/h 29.0 mph /  46.7 km/h 61 % 0.0 in /  0 mm
00:49 -5.8 °F /  -21 °C -12.1 °F /  -24.5 °C 1018.8 in /  34496.6 hPa NNE 19.5 mph /  31.4 km/h 27.4 mph /  44.1 km/h 61 % 0.0 in /  0 mm
00:55 -5.8 °F /  -21 °C -12.1 °F /  -24.5 °C 1018.8 in /  34496.6 hPa NE 9.7 mph /  15.6 km/h 19.3 mph /  31.1 km/h 61 % 0.0 in /  0 mm
01:01 -5.8 °F /  -21 °C -12.1 °F /  -24.5 °C 1018.8 in /  34496.6 hPa NNE 19.5 mph /  31.4 km/h 27.4 mph /  44.1 km/h 61 % 0.0 in /  0 mm
01:07 -5.9 °F /  -21.1 °C -12.0 °F /  -24.4 °C 1018.8 in /  34496.6 hPa NE 17.7 mph /  28.5 km/h 25.7 mph /  41.4 km/h 62 % 0.0 in /  0 mm
01:13 -5.9 °F /  -21.1 °C -12.0 °F /  -24.4 °C 1018.5 in /  34486.4 hPa NE 17.7 mph /  28.5 km/h 22.5 mph /  36.2 km/h 62 % 0.0 in /  0 mm
01:19 -6.0 °F /  -21.1 °C -12.1 °F /  -24.5 °C 1018.5 in /  34486.4 hPa NNE 7.9 mph /  12.7 km/h 27.4 mph /  44.1 km/h 62 % 0.0 in /  0 mm
01:25 -6.1 °F /  -21.2 °C -12.2 °F /  -24.6 °C 1018.5 in /  34486.4 hPa NNE 11.1 mph /  17.9 km/h 22.5 mph /  36.2 km/h 62 % 0.0 in /  0 mm
01:31 -6.1 °F /  -21.2 °C -12.0 °F /  -24.4 °C 1018.5 in /  34486.4 hPa NE 11.1 mph /  17.9 km/h 22.5 mph /  36.2 km/h 63 % 0.0 in /  0 mm
01:38 -6.2 °F /  -21.2 °C -12.3 °F /  -24.6 °C 1018.5 in /  34486.4 hPa NE 17.7 mph /  28.5 km/h 20.9 mph /  33.6 km/h 62 % 0.0 in /  0 mm
01:44 -6.2 °F /  -21.2 °C -12.1 °F /  -24.5 °C 1018.5 in /  34486.4 hPa NNE 11.1 mph /  17.9 km/h 20.9 mph /  33.6 km/h 63 % 0.0 in /  0 mm
01:50 -6.2 °F /  -21.2 °C -12.1 °F /  -24.5 °C 1018.5 in /  34486.4 hPa North 6.4 mph /  10.3 km/h 25.7 mph /  41.4 km/h 63 % 0.0 in /  0 mm
01:56 -6.2 °F /  -21.2 °C -12.3 °F /  -24.6 °C 1018.5 in /  34486.4 hPa North 7.9 mph /  12.7 km/h 25.7 mph /  41.4 km/h 62 % 0.0 in /  0 mm
02:02 -6.2 °F /  -21.2 °C -12.1 °F /  -24.5 °C 1018.2 in /  34476.3 hPa NE 17.7 mph /  28.5 km/h 27.4 mph /  44.1 km/h 63 % 0.0 in /  0 mm
02:08 -6.3 °F /  -21.3 °C -12.2 °F /  -24.6 °C 1018.5 in /  34486.4 hPa NNE 17.7 mph /  28.5 km/h 19.3 mph /  31.1 km/h 63 % 0.0 in /  0 mm
02:14 -6.3 °F /  -21.3 °C -12.2 °F /  -24.6 °C 1018.5 in /  34486.4 hPa North 4.7 mph /  7.6 km/h 19.3 mph /  31.1 km/h 63 % 0.0 in /  0 mm
02:20 -6.3 °F /  -21.3 °C -12.2 °F /  -24.6 °C 1018.2 in /  34476.3 hPa NE 11.1 mph /  17.9 km/h 22.5 mph /  36.2 km/h 63 % 0.0 in /  0 mm
02:26 -6.3 °F /  -21.3 °C -12.4 °F /  -24.7 °C 1018.2 in /  34476.3 hPa NE 16.3 mph /  26.2 km/h 38.6 mph /  62.1 km/h 62 % 0.0 in /  0 mm
02:32 -6.4 °F /  -21.3 °C -12.3 °F /  -24.6 °C 1018.5 in /  34486.4 hPa East 3.2 mph /  5.1 km/h 27.4 mph /  44.1 km/h 63 % 0.0 in /  0 mm
02:38 -6.4 °F /  -21.3 °C -12.5 °F /  -24.7 °C 1018.5 in /  34486.4 hPa NNE 11.1 mph /  17.9 km/h 25.7 mph /  41.4 km/h 62 % 0.0 in /  0 mm
02:44 -6.4 °F /  -21.3 °C -12.3 °F /  -24.6 °C 1018.5 in /  34486.4 hPa NNE 14.3 mph /  23 km/h 19.3 mph /  31.1 km/h 63 % 0.0 in /  0 mm
02:50 -6.5 °F /  -21.4 °C -12.4 °F /  -24.7 °C 1018.2 in /  34476.3 hPa ENE 11.1 mph /  17.9 km/h 19.3 mph /  31.1 km/h 63 % 0.0 in /  0 mm
02:56 -6.6 °F /  -21.4 °C -12.5 °F /  -24.7 °C 1018.2 in /  34476.3 hPa North 4.7 mph /  7.6 km/h 19.3 mph /  31.1 km/h 63 % 0.0 in /  0 mm
03:02 -6.7 °F /  -21.5 °C -12.6 °F /  -24.8 °C 1018.2 in /  34476.3 hPa NE 6.4 mph /  10.3 km/h 22.5 mph /  36.2 km/h 63 % 0.0 in /  0 mm
03:08 -6.7 °F /  -21.5 °C -12.6 °F /  -24.8 °C 1018.2 in /  34476.3 hPa NNE 9.7 mph /  15.6 km/h 24.1 mph /  38.8 km/h 63 % 0.0 in /  0 mm
03:14 -6.7 °F /  -21.5 °C -12.6 °F /  -24.8 °C 1018.2 in /  34476.3 hPa ENE 9.7 mph /  15.6 km/h 29.0 mph /  46.7 km/h 63 % 0.0 in /  0 mm
03:20 -6.7 °F /  -21.5 °C -12.6 °F /  -24.8 °C 1018.2 in /  34476.3 hPa NNE 9.7 mph /  15.6 km/h 24.1 mph /  38.8 km/h 63 % 0.0 in /  0 mm
03:26 -6.7 °F /  -21.5 °C -12.6 °F /  -24.8 °C 1018.2 in /  34476.3 hPa NNE 11.1 mph /  17.9 km/h 24.1 mph /  38.8 km/h 63 % 0.0 in /  0 mm
03:32 -6.8 °F /  -21.6 °C -12.7 °F /  -24.8 °C 1017.8 in /  34462.7 hPa NE 19.5 mph /  31.4 km/h 24.1 mph /  38.8 km/h 63 % 0.0 in /  0 mm
03:38 -6.8 °F /  -21.6 °C -12.7 °F /  -24.8 °C 1017.8 in /  34462.7 hPa NE 24.1 mph /  38.8 km/h 24.1 mph /  38.8 km/h 63 % 0.0 in /  0 mm
03:44 -6.8 °F /  -21.6 °C -12.7 °F /  -24.8 °C 1017.8 in /  34462.7 hPa ENE 9.7 mph /  15.6 km/h 22.5 mph /  36.2 km/h 63 % 0.0 in /  0 mm
03:50 -6.9 °F /  -21.6 °C -12.8 °F /  -24.9 °C 1017.8 in /  34462.7 hPa NNE 16.3 mph /  26.2 km/h 19.3 mph /  31.1 km/h 63 % 0.0 in /  0 mm
03:56 -6.9 °F /  -21.6 °C -12.6 °F /  -24.8 °C 1017.8 in /  34462.7 hPa NE 6.4 mph /  10.3 km/h 17.7 mph /  28.5 km/h 64 % 0.0 in /  0 mm
04:02 -7.0 °F /  -21.7 °C -12.7 °F /  -24.8 °C 1017.8 in /  34462.7 hPa NE 13.0 mph /  20.9 km/h 20.9 mph /  33.6 km/h 64 % 0.0 in /  0 mm
04:08 -7.0 °F /  -21.7 °C -12.7 °F /  -24.8 °C 1017.8 in /  34462.7 hPa NE 11.1 mph /  17.9 km/h 22.5 mph /  36.2 km/h 64 % 0.0 in /  0 mm
04:14 -7.1 °F /  -21.7 °C -12.8 °F /  -24.9 °C 1017.8 in /  34462.7 hPa NNE 13.0 mph /  20.9 km/h 19.3 mph /  31.1 km/h 64 % 0.0 in /  0 mm
04:20 -7.1 °F /  -21.7 °C -12.8 °F /  -24.9 °C 1017.8 in /  34462.7 hPa NE 13.0 mph /  20.9 km/h 20.9 mph /  33.6 km/h 64 % 0.0 in /  0 mm
04:26 -7.1 °F /  -21.7 °C -12.6 °F /  -24.8 °C 1017.8 in /  34462.7 hPa NE 22.7 mph /  36.5 km/h 29.0 mph /  46.7 km/h 65 % 0.0 in /  0 mm
04:32 -7.1 °F /  -21.7 °C -12.8 °F /  -24.9 °C 1017.8 in /  34462.7 hPa NNE 7.9 mph /  12.7 km/h 22.5 mph /  36.2 km/h 64 % 0.0 in /  0 mm
04:38 -7.1 °F /  -21.7 °C -12.8 °F /  -24.9 °C 1017.8 in /  34462.7 hPa NNE 16.3 mph /  26.2 km/h 27.4 mph /  44.1 km/h 64 % 0.0 in /  0 mm
04:44 -7.1 °F /  -21.7 °C -12.9 °F /  -24.9 °C 1017.8 in /  34462.7 hPa NNE 16.3 mph /  26.2 km/h 24.1 mph /  38.8 km/h 63 % 0.0 in /  0 mm
04:50 -7.1 °F /  -21.7 °C -12.9 °F /  -24.9 °C 1017.8 in /  34462.7 hPa NNE 4.7 mph /  7.6 km/h 22.5 mph /  36.2 km/h 63 % 0.0 in /  0 mm
04:56 -7.2 °F /  -21.8 °C -12.8 °F /  -24.9 °C 1017.8 in /  34462.7 hPa NNE 3.2 mph /  5.1 km/h 19.3 mph /  31.1 km/h 64 % 0.0 in /  0 mm
05:02 -7.2 °F /  -21.8 °C -13.0 °F /  -25 °C 1017.8 in /  34462.7 hPa ENE 9.7 mph /  15.6 km/h 29.0 mph /  46.7 km/h 63 % 0.0 in /  0 mm
05:08 -7.2 °F /  -21.8 °C -12.8 °F /  -24.9 °C 1017.8 in /  34462.7 hPa NW 6.4 mph /  10.3 km/h 24.1 mph /  38.8 km/h 64 % 0.0 in /  0 mm
05:14 -7.3 °F /  -21.8 °C -12.9 °F /  -24.9 °C 1017.8 in /  34462.7 hPa NE 16.3 mph /  26.2 km/h 17.7 mph /  28.5 km/h 64 % 0.0 in /  0 mm
05:20 -7.3 °F /  -21.8 °C -12.8 °F /  -24.9 °C 1017.8 in /  34462.7 hPa ENE 1.4 mph /  2.3 km/h 11.3 mph /  18.2 km/h 65 % 0.0 in /  0 mm
05:26 -7.4 °F /  -21.9 °C -12.7 °F /  -24.8 °C 1017.8 in /  34462.7 hPa NNE 4.7 mph /  7.6 km/h 16.1 mph /  25.9 km/h 66 % 0.0 in /  0 mm
05:32 -7.4 °F /  -21.9 °C -12.7 °F /  -24.8 °C 1017.8 in /  34462.7 hPa NNE 7.9 mph /  12.7 km/h 19.3 mph /  31.1 km/h 66 % 0.0 in /  0 mm
05:38 -7.6 °F /  -22 °C -12.7 °F /  -24.8 °C 1017.8 in /  34462.7 hPa NW 9.7 mph /  15.6 km/h 20.9 mph /  33.6 km/h 67 % 0.0 in /  0 mm
05:44 -7.7 °F /  -22.1 °C -12.6 °F /  -24.8 °C 1017.8 in /  34462.7 hPa NE 17.7 mph /  28.5 km/h 19.3 mph /  31.1 km/h 68 % 0.0 in /  0 mm
05:50 -7.7 °F /  -22.1 °C -12.4 °F /  -24.7 °C 1017.8 in /  34462.7 hPa North 6.4 mph /  10.3 km/h 11.3 mph /  18.2 km/h 69 % 0.0 in /  0 mm
05:56 -7.8 °F /  -22.1 °C -12.3 °F /  -24.6 °C 1017.8 in /  34462.7 hPa NNE 9.7 mph /  15.6 km/h 11.3 mph /  18.2 km/h 70 % 0.0 in /  0 mm
06:02 -7.8 °F /  -22.1 °C -12.3 °F /  -24.6 °C 1017.8 in /  34462.7 hPa North 11.1 mph /  17.9 km/h 17.7 mph /  28.5 km/h 70 % 0.0 in /  0 mm
06:08 -7.9 °F /  -22.2 °C -12.4 °F /  -24.7 °C 1017.8 in /  34462.7 hPa NNW 7.9 mph /  12.7 km/h 20.9 mph /  33.6 km/h 70 % 0.0 in /  0 mm
06:14 -7.8 °F /  -22.1 °C -12.3 °F /  -24.6 °C 1017.8 in /  34462.7 hPa NNE 6.4 mph /  10.3 km/h 22.5 mph /  36.2 km/h 70 % 0.0 in /  0 mm
06:20 -7.8 °F /  -22.1 °C -12.5 °F /  -24.7 °C 1017.8 in /  34462.7 hPa NNW 6.4 mph /  10.3 km/h 17.7 mph /  28.5 km/h 69 % 0.0 in /  0 mm
06:26 -7.9 °F /  -22.2 °C -12.4 °F /  -24.7 °C 1017.8 in /  34462.7 hPa NNE 3.2 mph /  5.1 km/h 9.7 mph /  15.6 km/h 70 % 0.0 in /  0 mm
06:32 -7.9 °F /  -22.2 °C -12.4 °F /  -24.7 °C 1017.8 in /  34462.7 hPa NNW 3.2 mph /  5.1 km/h 17.7 mph /  28.5 km/h 70 % 0.0 in /  0 mm
06:38 -7.9 °F /  -22.2 °C -12.4 °F /  -24.7 °C 1017.8 in /  34462.7 hPa NNE 3.2 mph /  5.1 km/h 11.3 mph /  18.2 km/h 70 % 0.0 in /  0 mm
06:44 -7.9 °F /  -22.2 °C -12.4 °F /  -24.7 °C 1017.8 in /  34462.7 hPa NE 19.5 mph /  31.4 km/h 22.5 mph /  36.2 km/h 70 % 0.0 in /  0 mm
06:50 -7.9 °F /  -22.2 °C -12.4 °F /  -24.7 °C 1017.8 in /  34462.7 hPa NNW 4.7 mph /  7.6 km/h 17.7 mph /  28.5 km/h 70 % 0.0 in /  0 mm
06:56 -8.1 °F /  -22.3 °C -12.6 °F /  -24.8 °C 1017.8 in /  34462.7 hPa NE 3.2 mph /  5.1 km/h 14.5 mph /  23.3 km/h 70 % 0.0 in /  0 mm
07:02 -8.1 °F /  -22.3 °C -12.4 °F /  -24.7 °C 1017.8 in /  34462.7 hPa North 7.9 mph /  12.7 km/h 11.3 mph /  18.2 km/h 71 % 0.0 in /  0 mm
07:08 -8.2 °F /  -22.3 °C -12.5 °F /  -24.7 °C 1017.5 in /  34452.6 hPa North 1.4 mph /  2.3 km/h 9.7 mph /  15.6 km/h 71 % 0.0 in /  0 mm
07:14 -8.2 °F /  -22.3 °C -12.5 °F /  -24.7 °C 1017.5 in /  34452.6 hPa North 9.7 mph /  15.6 km/h 20.9 mph /  33.6 km/h 71 % 0.0 in /  0 mm
07:20 -8.1 °F /  -22.3 °C -12.6 °F /  -24.8 °C 1017.5 in /  34452.6 hPa NE 14.3 mph /  23 km/h 20.9 mph /  33.6 km/h 70 % 0.0 in /  0 mm
07:26 -8.2 °F /  -22.3 °C -12.7 °F /  -24.8 °C 1017.5 in /  34452.6 hPa NE 11.1 mph /  17.9 km/h 20.9 mph /  33.6 km/h 70 % 0.0 in /  0 mm
07:32 -8.2 °F /  -22.3 °C -12.5 °F /  -24.7 °C 1017.5 in /  34452.6 hPa NNW 3.2 mph /  5.1 km/h 16.1 mph /  25.9 km/h 71 % 0.0 in /  0 mm
07:38 -8.3 °F /  -22.4 °C -12.6 °F /  -24.8 °C 1017.5 in /  34452.6 hPa NNE 4.7 mph /  7.6 km/h 12.9 mph /  20.8 km/h 71 % 0.0 in /  0 mm
07:44 -8.3 °F /  -22.4 °C -12.6 °F /  -24.8 °C 1017.5 in /  34452.6 hPa North 11.1 mph /  17.9 km/h 19.3 mph /  31.1 km/h 71 % 0.0 in /  0 mm
07:50 -8.2 °F /  -22.3 °C -12.5 °F /  -24.7 °C 1017.5 in /  34452.6 hPa NE 1.4 mph /  2.3 km/h 19.3 mph /  31.1 km/h 71 % 0.0 in /  0 mm
07:56 -8.2 °F /  -22.3 °C -12.5 °F /  -24.7 °C 1017.5 in /  34452.6 hPa NW 9.7 mph /  15.6 km/h 17.7 mph /  28.5 km/h 71 % 0.0 in /  0 mm
08:02 -8.2 °F /  -22.3 °C -12.5 °F /  -24.7 °C 1017.5 in /  34452.6 hPa NNE 11.1 mph /  17.9 km/h 11.3 mph /  18.2 km/h 71 % 0.0 in /  0 mm
08:14 -8.0 °F /  -22.2 °C -12.5 °F /  -24.7 °C 1017.8 in /  34462.7 hPa NE 7.9 mph /  12.7 km/h 17.7 mph /  28.5 km/h 70 % 0.0 in /  0 mm
08:20 -7.9 °F /  -22.2 °C -12.4 °F /  -24.7 °C 1017.8 in /  34462.7 hPa NNE 7.9 mph /  12.7 km/h 16.1 mph /  25.9 km/h 70 % 0.0 in /  0 mm
08:26 -7.7 °F /  -22.1 °C -12.2 °F /  -24.6 °C 1017.8 in /  34462.7 hPa NE 3.2 mph /  5.1 km/h 14.5 mph /  23.3 km/h 70 % 0.0 in /  0 mm
08:32 -7.7 °F /  -22.1 °C -12.4 °F /  -24.7 °C 1017.8 in /  34462.7 hPa North 6.4 mph /  10.3 km/h 20.9 mph /  33.6 km/h 69 % 0.0 in /  0 mm
08:38 -7.5 °F /  -21.9 °C -12.2 °F /  -24.6 °C 1017.8 in /  34462.7 hPa NE 1.4 mph /  2.3 km/h 25.7 mph /  41.4 km/h 69 % 0.0 in /  0 mm
08:44 -7.3 °F /  -21.8 °C -12.0 °F /  -24.4 °C 1017.8 in /  34462.7 hPa NNE 17.7 mph /  28.5 km/h 20.9 mph /  33.6 km/h 69 % 0.0 in /  0 mm
08:50 -7.2 °F /  -21.8 °C -11.9 °F /  -24.4 °C 1017.8 in /  34462.7 hPa NE 7.9 mph /  12.7 km/h 19.3 mph /  31.1 km/h 69 % 0.0 in /  0 mm
08:56 -7.1 °F /  -21.7 °C -12.0 °F /  -24.4 °C 1017.5 in /  34452.6 hPa NNE 13.0 mph /  20.9 km/h 24.1 mph /  38.8 km/h 68 % 0.0 in /  0 mm
09:02 -7.0 °F /  -21.7 °C -11.7 °F /  -24.3 °C 1017.5 in /  34452.6 hPa NNE 16.3 mph /  26.2 km/h 17.7 mph /  28.5 km/h 69 % 0.0 in /  0 mm
09:08 -7.0 °F /  -21.7 °C -11.9 °F /  -24.4 °C 1017.5 in /  34452.6 hPa NNE 4.7 mph /  7.6 km/h 24.1 mph /  38.8 km/h 68 % 0.0 in /  0 mm
09:14 -6.9 °F /  -21.6 °C -11.6 °F /  -24.2 °C 1017.5 in /  34452.6 hPa NNE 20.9 mph /  33.6 km/h 27.4 mph /  44.1 km/h 69 % 0.0 in /  0 mm
09:20 -6.9 °F /  -21.6 °C -12.0 °F /  -24.4 °C 1017.5 in /  34452.6 hPa ENE 17.7 mph /  28.5 km/h 25.7 mph /  41.4 km/h 67 % 0.0 in /  0 mm
09:26 -6.8 °F /  -21.6 °C -11.7 °F /  -24.3 °C 1017.5 in /  34452.6 hPa NE 17.7 mph /  28.5 km/h 27.4 mph /  44.1 km/h 68 % 0.0 in /  0 mm
09:32 -6.6 °F /  -21.4 °C -11.7 °F /  -24.3 °C 1017.5 in /  34452.6 hPa NNE 19.5 mph /  31.4 km/h 22.5 mph /  36.2 km/h 67 % 0.0 in /  0 mm
09:38 -6.4 °F /  -21.3 °C -11.5 °F /  -24.2 °C 1017.5 in /  34452.6 hPa ENE 6.4 mph /  10.3 km/h 24.1 mph /  38.8 km/h 67 % 0.0 in /  0 mm
09:44 -6.3 °F /  -21.3 °C -12.0 °F /  -24.4 °C 1017.2 in /  34442.4 hPa NE 16.3 mph /  26.2 km/h 33.8 mph /  54.4 km/h 64 % 0.0 in /  0 mm
09:50 -6.1 °F /  -21.2 °C -11.6 °F /  -24.2 °C 1017.2 in /  34442.4 hPa NE 16.3 mph /  26.2 km/h 25.7 mph /  41.4 km/h 65 % 0.0 in /  0 mm
09:56 -5.8 °F /  -21 °C -11.9 °F /  -24.4 °C 1017.2 in /  34442.4 hPa NE 16.3 mph /  26.2 km/h 30.6 mph /  49.2 km/h 62 % 0.0 in /  0 mm
10:02 -5.8 °F /  -21 °C -11.9 °F /  -24.4 °C 1017.2 in /  34442.4 hPa NE 22.7 mph /  36.5 km/h 24.1 mph /  38.8 km/h 62 % 0.0 in /  0 mm
10:08 -5.7 °F /  -20.9 °C -12.0 °F /  -24.4 °C 1017.2 in /  34442.4 hPa NE 6.4 mph /  10.3 km/h 25.7 mph /  41.4 km/h 61 % 0.0 in /  0 mm
10:14 -5.3 °F /  -20.7 °C -11.4 °F /  -24.1 °C 1017.2 in /  34442.4 hPa NE 13.0 mph /  20.9 km/h 22.5 mph /  36.2 km/h 62 % 0.0 in /  0 mm
10:20 -5.4 °F /  -20.8 °C -12.4 °F /  -24.7 °C 1017.2 in /  34442.4 hPa NE 13.0 mph /  20.9 km/h 30.6 mph /  49.2 km/h 58 % 0.0 in /  0 mm
10:26 -5.3 °F /  -20.7 °C -12.3 °F /  -24.6 °C 1016.8 in /  34428.8 hPa ENE 13.0 mph /  20.9 km/h 29.0 mph /  46.7 km/h 58 % 0.0 in /  0 mm
10:33 -5.3 °F /  -20.7 °C -12.7 °F /  -24.8 °C 1016.8 in /  34428.8 hPa ENE 17.7 mph /  28.5 km/h 30.6 mph /  49.2 km/h 56 % 0.0 in /  0 mm
10:39 -5.1 °F /  -20.6 °C -12.3 °F /  -24.6 °C 1016.8 in /  34428.8 hPa NE 13.0 mph /  20.9 km/h 24.1 mph /  38.8 km/h 57 % 0.0 in /  0 mm
10:44 -4.8 °F /  -20.4 °C -12.0 °F /  -24.4 °C 1016.8 in /  34428.8 hPa NNW 9.7 mph /  15.6 km/h 19.3 mph /  31.1 km/h 57 % 0.0 in /  0 mm
10:50 -4.7 °F /  -20.4 °C -12.1 °F /  -24.5 °C 1016.8 in /  34428.8 hPa NNE 27.4 mph /  44.1 km/h 32.2 mph /  51.8 km/h 56 % 0.0 in /  0 mm
10:56 -4.7 °F /  -20.4 °C -12.1 °F /  -24.5 °C 1016.8 in /  34428.8 hPa East 24.1 mph /  38.8 km/h 27.4 mph /  44.1 km/h 56 % 0.0 in /  0 mm
11:02 -4.6 °F /  -20.3 °C -11.8 °F /  -24.3 °C 1016.8 in /  34428.8 hPa ENE 14.3 mph /  23 km/h 19.3 mph /  31.1 km/h 57 % 0.0 in /  0 mm
11:08 -4.5 °F /  -20.3 °C -12.2 °F /  -24.6 °C 1016.5 in /  34418.7 hPa East 24.1 mph /  38.8 km/h 35.4 mph /  57 km/h 55 % 0.0 in /  0 mm
11:14 -4.4 °F /  -20.2 °C -12.1 °F /  -24.5 °C 1016.5 in /  34418.7 hPa NNE 7.9 mph /  12.7 km/h 19.3 mph /  31.1 km/h 55 % 0.0 in /  0 mm
11:20 -4.4 °F /  -20.2 °C -12.8 °F /  -24.9 °C 1016.5 in /  34418.7 hPa North 27.4 mph /  44.1 km/h 33.8 mph /  54.4 km/h 52 % 0.0 in /  0 mm
11:26 -4.2 °F /  -20.1 °C -12.4 °F /  -24.7 °C 1016.5 in /  34418.7 hPa ENE 24.1 mph /  38.8 km/h 30.6 mph /  49.2 km/h 53 % 0.0 in /  0 mm
11:32 -4.1 °F /  -20.1 °C -12.3 °F /  -24.6 °C 1016.5 in /  34418.7 hPa NE 22.7 mph /  36.5 km/h 35.4 mph /  57 km/h 53 % 0.0 in /  0 mm
11:38 -4.1 °F /  -20.1 °C -12.3 °F /  -24.6 °C 1016.5 in /  34418.7 hPa ENE 11.1 mph /  17.9 km/h 25.7 mph /  41.4 km/h 53 % 0.0 in /  0 mm
11:44 -3.8 °F /  -19.9 °C -12.0 °F /  -24.4 °C 1016.5 in /  34418.7 hPa East 16.3 mph /  26.2 km/h 17.7 mph /  28.5 km/h 53 % 0.0 in /  0 mm
11:50 -3.8 °F /  -19.9 °C -12.2 °F /  -24.6 °C 1016.5 in /  34418.7 hPa NNE 24.1 mph /  38.8 km/h 40.2 mph /  64.7 km/h 52 % 0.0 in /  0 mm
11:57 -4.2 °F /  -20.1 °C -12.6 °F /  -24.8 °C 1016.5 in /  34418.7 hPa NE 32.0 mph /  51.5 km/h 37.0 mph /  59.5 km/h 52 % 0.0 in /  0 mm
12:02 -4.4 °F /  -20.2 °C -12.5 °F /  -24.7 °C 1016.5 in /  34418.7 hPa NE 24.1 mph /  38.8 km/h 35.4 mph /  57 km/h 53 % 0.0 in /  0 mm
12:08 -4.4 °F /  -20.2 °C -12.5 °F /  -24.7 °C 1016.5 in /  34418.7 hPa NNE 28.8 mph /  46.3 km/h 37.0 mph /  59.5 km/h 53 % 0.0 in /  0 mm
12:14 -4.4 °F /  -20.2 °C -12.8 °F /  -24.9 °C 1016.5 in /  34418.7 hPa NE 20.9 mph /  33.6 km/h 33.8 mph /  54.4 km/h 52 % 0.0 in /  0 mm
12:20 -4.2 °F /  -20.1 °C -12.4 °F /  -24.7 °C 1016.1 in /  34405.1 hPa NNE 7.9 mph /  12.7 km/h 16.1 mph /  25.9 km/h 53 % 0.0 in /  0 mm
12:26 -3.9 °F /  -19.9 °C -12.3 °F /  -24.6 °C 1016.1 in /  34405.1 hPa NNE 20.9 mph /  33.6 km/h 27.4 mph /  44.1 km/h 52 % 0.0 in /  0 mm
12:32 -3.7 °F /  -19.8 °C -12.4 °F /  -24.7 °C 1016.1 in /  34405.1 hPa NE 20.9 mph /  33.6 km/h 33.8 mph /  54.4 km/h 51 % 0.0 in /  0 mm
12:38 -3.8 °F /  -19.9 °C -12.5 °F /  -24.7 °C 1016.1 in /  34405.1 hPa East 17.7 mph /  28.5 km/h 24.1 mph /  38.8 km/h 51 % 0.0 in /  0 mm
12:44 -3.3 °F /  -19.6 °C -12.5 °F /  -24.7 °C 1016.1 in /  34405.1 hPa East 16.3 mph /  26.2 km/h 27.4 mph /  44.1 km/h 49 % 0.0 in /  0 mm
12:50 -3.3 °F /  -19.6 °C -12.0 °F /  -24.4 °C 1016.1 in /  34405.1 hPa SE 9.7 mph /  15.6 km/h 24.1 mph /  38.8 km/h 51 % 0.0 in /  0 mm
12:56 -3.1 °F /  -19.5 °C -12.3 °F /  -24.6 °C 1016.1 in /  34405.1 hPa ENE 14.3 mph /  23 km/h 30.6 mph /  49.2 km/h 49 % 0.0 in /  0 mm
13:02 -3.4 °F /  -19.7 °C -12.3 °F /  -24.6 °C 1015.8 in /  34395 hPa NE 28.8 mph /  46.3 km/h 30.6 mph /  49.2 km/h 50 % 0.0 in /  0 mm
13:08 -3.1 °F /  -19.5 °C -12.6 °F /  -24.8 °C 1015.8 in /  34395 hPa ENE 22.7 mph /  36.5 km/h 30.6 mph /  49.2 km/h 48 % 0.0 in /  0 mm
13:15 -2.7 °F /  -19.3 °C -11.9 °F /  -24.4 °C 1015.8 in /  34395 hPa NE 22.7 mph /  36.5 km/h 30.6 mph /  49.2 km/h 49 % 0.0 in /  0 mm
13:21 -2.9 °F /  -19.4 °C -12.6 °F /  -24.8 °C 1015.8 in /  34395 hPa North 17.7 mph /  28.5 km/h 25.7 mph /  41.4 km/h 47 % 0.0 in /  0 mm
13:27 -2.7 °F /  -19.3 °C -12.2 °F /  -24.6 °C 1015.8 in /  34395 hPa NE 11.1 mph /  17.9 km/h 29.0 mph /  46.7 km/h 48 % 0.0 in /  0 mm
13:33 -2.7 °F /  -19.3 °C -12.2 °F /  -24.6 °C 1015.5 in /  34384.8 hPa NE 14.3 mph /  23 km/h 29.0 mph /  46.7 km/h 48 % 0.0 in /  0 mm
13:39 -3.1 °F /  -19.5 °C -12.8 °F /  -24.9 °C 1015.5 in /  34384.8 hPa NE 17.7 mph /  28.5 km/h 35.4 mph /  57 km/h 47 % 0.0 in /  0 mm
13:45 -3.4 °F /  -19.7 °C -12.8 °F /  -24.9 °C 1015.5 in /  34384.8 hPa NE 22.7 mph /  36.5 km/h 33.8 mph /  54.4 km/h 48 % 0.0 in /  0 mm
13:51 -3.6 °F /  -19.8 °C -12.8 °F /  -24.9 °C 1015.5 in /  34384.8 hPa NE 14.3 mph /  23 km/h 27.4 mph /  44.1 km/h 49 % 0.0 in /  0 mm
13:57 -3.4 °F /  -19.7 °C -12.6 °F /  -24.8 °C 1015.5 in /  34384.8 hPa NNE 14.3 mph /  23 km/h 22.5 mph /  36.2 km/h 49 % 0.0 in /  0 mm
14:03 -2.8 °F /  -19.3 °C -12.0 °F /  -24.4 °C 1015.1 in /  34371.3 hPa NE 19.5 mph /  31.4 km/h 32.2 mph /  51.8 km/h 49 % 0.0 in /  0 mm
14:09 -3.0 °F /  -19.4 °C -13.0 °F /  -25 °C 1015.1 in /  34371.3 hPa NE 17.7 mph /  28.5 km/h 24.1 mph /  38.8 km/h 46 % 0.0 in /  0 mm
14:15 -2.7 °F /  -19.3 °C -12.2 °F /  -24.6 °C 1015.1 in /  34371.3 hPa NNE 9.7 mph /  15.6 km/h 16.1 mph /  25.9 km/h 48 % 0.0 in /  0 mm
14:21 -2.6 °F /  -19.2 °C -12.4 °F /  -24.7 °C 1015.1 in /  34371.3 hPa NW 19.5 mph /  31.4 km/h 30.6 mph /  49.2 km/h 47 % 0.0 in /  0 mm
14:27 -3.2 °F /  -19.6 °C -12.4 °F /  -24.7 °C 1015.1 in /  34371.3 hPa NNE 9.7 mph /  15.6 km/h 24.1 mph /  38.8 km/h 49 % 0.0 in /  0 mm
14:33 -3.1 °F /  -19.5 °C -12.3 °F /  -24.6 °C 1015.1 in /  34371.3 hPa NE 14.3 mph /  23 km/h 25.7 mph /  41.4 km/h 49 % 0.0 in /  0 mm
14:39 -2.8 °F /  -19.3 °C -12.3 °F /  -24.6 °C 1015.1 in /  34371.3 hPa ENE 7.9 mph /  12.7 km/h 16.1 mph /  25.9 km/h 48 % 0.0 in /  0 mm
14:45 -2.4 °F /  -19.1 °C -11.7 °F /  -24.3 °C 1015.1 in /  34371.3 hPa NNE 11.1 mph /  17.9 km/h 20.9 mph /  33.6 km/h 49 % 0.0 in /  0 mm
14:51 -2.6 °F /  -19.2 °C -12.1 °F /  -24.5 °C 1015.1 in /  34371.3 hPa NNE 16.3 mph /  26.2 km/h 27.4 mph /  44.1 km/h 48 % 0.0 in /  0 mm
14:57 -3.3 °F /  -19.6 °C -13.0 °F /  -25 °C 1015.1 in /  34371.3 hPa NE 17.7 mph /  28.5 km/h 22.5 mph /  36.2 km/h 47 % 0.0 in /  0 mm
15:03 -3.1 °F /  -19.5 °C -13.1 °F /  -25.1 °C 1014.8 in /  34361.1 hPa NE 22.7 mph /  36.5 km/h 24.1 mph /  38.8 km/h 46 % 0.0 in /  0 mm
15:09 -2.9 °F /  -19.4 °C -12.6 °F /  -24.8 °C 1014.8 in /  34361.1 hPa ENE 9.7 mph /  15.6 km/h 24.1 mph /  38.8 km/h 47 % 0.0 in /  0 mm
15:15 -2.7 °F /  -19.3 °C -11.7 °F /  -24.3 °C 1014.8 in /  34361.1 hPa NNW 11.1 mph /  17.9 km/h 16.1 mph /  25.9 km/h 50 % 0.0 in /  0 mm
15:21 -2.9 °F /  -19.4 °C -11.9 °F /  -24.4 °C 1015.1 in /  34371.3 hPa NNE 13.0 mph /  20.9 km/h 17.7 mph /  28.5 km/h 50 % 0.0 in /  0 mm
15:27 -3.1 °F /  -19.5 °C -12.8 °F /  -24.9 °C 1014.8 in /  34361.1 hPa NNE 16.3 mph /  26.2 km/h 25.7 mph /  41.4 km/h 47 % 0.0 in /  0 mm
15:33 -2.9 °F /  -19.4 °C -12.6 °F /  -24.8 °C 1014.8 in /  34361.1 hPa NNE 13.0 mph /  20.9 km/h 13.0 mph /  20.9 km/h 47 % 0.0 in /  0 mm
15:39 -2.7 °F /  -19.3 °C -12.5 °F /  -24.7 °C 1014.8 in /  34361.1 hPa ENE 4.7 mph /  7.6 km/h 22.5 mph /  36.2 km/h 47 % 0.0 in /  0 mm
15:45 -2.7 °F /  -19.3 °C -12.7 °F /  -24.8 °C 1014.8 in /  34361.1 hPa ESE 11.1 mph /  17.9 km/h 14.5 mph /  23.3 km/h 46 % 0.0 in /  0 mm
15:51 -2.7 °F /  -19.3 °C -12.5 °F /  -24.7 °C 1014.8 in /  34361.1 hPa NNW 1.4 mph /  2.3 km/h 17.7 mph /  28.5 km/h 47 % 0.0 in /  0 mm
15:57 -2.9 °F /  -19.4 °C -13.2 °F /  -25.1 °C 1014.8 in /  34361.1 hPa NE 16.3 mph /  26.2 km/h 20.9 mph /  33.6 km/h 45 % 0.0 in /  0 mm
16:03 -3.2 °F /  -19.6 °C -13.2 °F /  -25.1 °C 1014.8 in /  34361.1 hPa North 6.4 mph /  10.3 km/h 16.1 mph /  25.9 km/h 46 % 0.0 in /  0 mm
16:09 -3.2 °F /  -19.6 °C -12.7 °F /  -24.8 °C 1014.4 in /  34347.6 hPa NNW 3.2 mph /  5.1 km/h 24.1 mph /  38.8 km/h 48 % 0.0 in /  0 mm
16:15 -2.6 °F /  -19.2 °C -11.6 °F /  -24.2 °C 1014.4 in /  34347.6 hPa ENE 1.4 mph /  2.3 km/h 19.3 mph /  31.1 km/h 50 % 0.0 in /  0 mm
16:21 -2.9 °F /  -19.4 °C -12.4 °F /  -24.7 °C 1014.4 in /  34347.6 hPa North 17.7 mph /  28.5 km/h 22.5 mph /  36.2 km/h 48 % 0.0 in /  0 mm
16:27 -3.3 °F /  -19.6 °C -12.7 °F /  -24.8 °C 1014.4 in /  34347.6 hPa East 22.7 mph /  36.5 km/h 22.7 mph /  36.5 km/h 48 % 0.0 in /  0 mm
16:33 -3.1 °F /  -19.5 °C -12.3 °F /  -24.6 °C 1014.4 in /  34347.6 hPa NNE 19.5 mph /  31.4 km/h 20.9 mph /  33.6 km/h 49 % 0.0 in /  0 mm
16:39 -2.9 °F /  -19.4 °C -12.1 °F /  -24.5 °C 1014.4 in /  34347.6 hPa NNW 24.1 mph /  38.8 km/h 25.7 mph /  41.4 km/h 49 % 0.0 in /  0 mm
16:45 -2.8 °F /  -19.3 °C -11.5 °F /  -24.2 °C 1014.4 in /  34347.6 hPa NNE 6.4 mph /  10.3 km/h 22.5 mph /  36.2 km/h 51 % 0.0 in /  0 mm
16:51 -3.0 °F /  -19.4 °C -12.2 °F /  -24.6 °C 1014.4 in /  34347.6 hPa NE 7.9 mph /  12.7 km/h 22.5 mph /  36.2 km/h 49 % 0.0 in /  0 mm
16:57 -3.3 °F /  -19.6 °C -12.7 °F /  -24.8 °C 1014.4 in /  34347.6 hPa NE 16.3 mph /  26.2 km/h 19.3 mph /  31.1 km/h 48 % 0.0 in /  0 mm
17:09 -3.3 °F /  -19.6 °C -11.8 °F /  -24.3 °C 1014.4 in /  34347.6 hPa North 13.0 mph /  20.9 km/h 14.5 mph /  23.3 km/h 52 % 0.0 in /  0 mm
17:15 -3.2 °F /  -19.6 °C -11.9 °F /  -24.4 °C 1014.4 in /  34347.6 hPa NNE 6.4 mph /  10.3 km/h 12.9 mph /  20.8 km/h 51 % 0.0 in /  0 mm
17:21 -3.1 °F /  -19.5 °C -11.8 °F /  -24.3 °C 1014.4 in /  34347.6 hPa NE 13.0 mph /  20.9 km/h 14.5 mph /  23.3 km/h 51 % 0.0 in /  0 mm
17:27 -3.3 °F /  -19.6 °C -12.2 °F /  -24.6 °C 1014.4 in /  34347.6 hPa NNE 13.0 mph /  20.9 km/h 20.9 mph /  33.6 km/h 50 % 0.0 in /  0 mm
17:33 -3.7 °F /  -19.8 °C -12.1 °F /  -24.5 °C 1014.4 in /  34347.6 hPa NNE 13.0 mph /  20.9 km/h 17.7 mph /  28.5 km/h 52 % 0.0 in /  0 mm
17:39 -3.8 °F /  -19.9 °C -11.7 °F /  -24.3 °C 1014.4 in /  34347.6 hPa NNE 4.7 mph /  7.6 km/h 9.7 mph /  15.6 km/h 54 % 0.0 in /  0 mm
17:45 -3.8 °F /  -19.9 °C -12.0 °F /  -24.4 °C 1014.4 in /  34347.6 hPa NE 6.4 mph /  10.3 km/h 19.3 mph /  31.1 km/h 53 % 0.0 in /  0 mm
17:51 -3.7 °F /  -19.8 °C -11.9 °F /  -24.4 °C 1014.4 in /  34347.6 hPa NNE 9.7 mph /  15.6 km/h 17.7 mph /  28.5 km/h 53 % 0.0 in /  0 mm
17:57 -3.7 °F /  -19.8 °C -11.9 °F /  -24.4 °C 1014.4 in /  34347.6 hPa NE 9.7 mph /  15.6 km/h 20.9 mph /  33.6 km/h 53 % 0.0 in /  0 mm
18:03 -3.7 °F /  -19.8 °C -11.9 °F /  -24.4 °C 1014.4 in /  34347.6 hPa NE 9.7 mph /  15.6 km/h 20.9 mph /  33.6 km/h 53 % 0.0 in /  0 mm
18:09 -3.8 °F /  -19.9 °C -12.0 °F /  -24.4 °C 1014.4 in /  34347.6 hPa NE 4.7 mph /  7.6 km/h 11.3 mph /  18.2 km/h 53 % 0.0 in /  0 mm
18:15 -3.9 °F /  -19.9 °C -12.1 °F /  -24.5 °C 1014.4 in /  34347.6 hPa ENE 7.9 mph /  12.7 km/h 12.9 mph /  20.8 km/h 53 % 0.0 in /  0 mm
18:21 -4.1 °F /  -20.1 °C -12.0 °F /  -24.4 °C 1014.4 in /  34347.6 hPa NE 7.9 mph /  12.7 km/h 17.7 mph /  28.5 km/h 54 % 0.0 in /  0 mm
18:27 -4.1 °F /  -20.1 °C -12.5 °F /  -24.7 °C 1014.4 in /  34347.6 hPa NE 14.3 mph /  23 km/h 19.3 mph /  31.1 km/h 52 % 0.0 in /  0 mm
18:33 -4.2 °F /  -20.1 °C -12.6 °F /  -24.8 °C 1014.4 in /  34347.6 hPa NNE 11.1 mph /  17.9 km/h 24.1 mph /  38.8 km/h 52 % 0.0 in /  0 mm
18:39 -4.3 °F /  -20.2 °C -12.4 °F /  -24.7 °C 1014.8 in /  34361.1 hPa NE 3.2 mph /  5.1 km/h 12.9 mph /  20.8 km/h 53 % 0.0 in /  0 mm
18:45 -4.4 °F /  -20.2 °C -12.3 °F /  -24.6 °C 1014.8 in /  34361.1 hPa NE 7.9 mph /  12.7 km/h 9.7 mph /  15.6 km/h 54 % 0.0 in /  0 mm
18:51 -4.6 °F /  -20.3 °C -12.0 °F /  -24.4 °C 1014.8 in /  34361.1 hPa North 3.2 mph /  5.1 km/h 4.8 mph /  7.7 km/h 56 % 0.0 in /  0 mm
18:57 -4.7 °F /  -20.4 °C -11.9 °F /  -24.4 °C 1014.8 in /  34361.1 hPa North 1.4 mph /  2.3 km/h 6.4 mph /  10.3 km/h 57 % 0.0 in /  0 mm
19:03 -4.7 °F /  -20.4 °C -12.1 °F /  -24.5 °C 1014.8 in /  34361.1 hPa NNE 16.3 mph /  26.2 km/h 17.7 mph /  28.5 km/h 56 % 0.0 in /  0 mm
19:09 -4.7 °F /  -20.4 °C -11.9 °F /  -24.4 °C 1014.8 in /  34361.1 hPa NE 9.7 mph /  15.6 km/h 16.1 mph /  25.9 km/h 57 % 0.0 in /  0 mm
19:15 -4.7 °F /  -20.4 °C -11.9 °F /  -24.4 °C 1014.8 in /  34361.1 hPa North 11.1 mph /  17.9 km/h 17.7 mph /  28.5 km/h 57 % 0.0 in /  0 mm
19:21 -4.8 °F /  -20.4 °C -12.0 °F /  -24.4 °C 1014.8 in /  34361.1 hPa NNE 9.7 mph /  15.6 km/h 12.9 mph /  20.8 km/h 57 % 0.0 in /  0 mm
19:27 -4.9 °F /  -20.5 °C -12.1 °F /  -24.5 °C 1014.8 in /  34361.1 hPa North 7.9 mph /  12.7 km/h 12.9 mph /  20.8 km/h 57 % 0.0 in /  0 mm
19:33 -4.9 °F /  -20.5 °C -11.9 °F /  -24.4 °C 1014.8 in /  34361.1 hPa North 1.4 mph /  2.3 km/h 16.1 mph /  25.9 km/h 58 % 0.0 in /  0 mm
19:39 -5.0 °F /  -20.6 °C -12.0 °F /  -24.4 °C 1014.8 in /  34361.1 hPa NNE 7.9 mph /  12.7 km/h 17.7 mph /  28.5 km/h 58 % 0.0 in /  0 mm
19:45 -5.1 °F /  -20.6 °C -11.9 °F /  -24.4 °C 1014.8 in /  34361.1 hPa Calm   12.9 mph /  20.8 km/h 59 % 0.0 in /  0 mm
19:51 -5.2 °F /  -20.7 °C -11.8 °F /  -24.3 °C 1014.8 in /  34361.1 hPa NNW 9.7 mph /  15.6 km/h 12.9 mph /  20.8 km/h 60 % 0.0 in /  0 mm
19:57 -5.2 °F /  -20.7 °C -11.8 °F /  -24.3 °C 1014.8 in /  34361.1 hPa North 3.2 mph /  5.1 km/h 14.5 mph /  23.3 km/h 60 % 0.0 in /  0 mm
20:04 -5.2 °F /  -20.7 °C -11.8 °F /  -24.3 °C 1014.8 in /  34361.1 hPa NNE 4.7 mph /  7.6 km/h 19.3 mph /  31.1 km/h 60 % 0.0 in /  0 mm
20:10 -5.3 °F /  -20.7 °C -11.6 °F /  -24.2 °C 1014.8 in /  34361.1 hPa East 1.4 mph /  2.3 km/h 9.7 mph /  15.6 km/h 61 % 0.0 in /  0 mm
20:16 -5.3 °F /  -20.7 °C -11.6 °F /  -24.2 °C 1014.8 in /  34361.1 hPa NNE 14.3 mph /  23 km/h 17.7 mph /  28.5 km/h 61 % 0.0 in /  0 mm
20:22 -5.3 °F /  -20.7 °C -11.6 °F /  -24.2 °C 1014.8 in /  34361.1 hPa NNE 7.9 mph /  12.7 km/h 14.5 mph /  23.3 km/h 61 % 0.0 in /  0 mm
20:28 -5.4 °F /  -20.8 °C -11.7 °F /  -24.3 °C 1014.8 in /  34361.1 hPa NNW 1.4 mph /  2.3 km/h 19.3 mph /  31.1 km/h 61 % 0.0 in /  0 mm
20:34 -5.4 °F /  -20.8 °C -11.5 °F /  -24.2 °C 1014.8 in /  34361.1 hPa NNW 4.7 mph /  7.6 km/h 20.9 mph /  33.6 km/h 62 % 0.0 in /  0 mm
20:40 -5.5 °F /  -20.8 °C -11.6 °F /  -24.2 °C 1014.8 in /  34361.1 hPa NE 13.0 mph /  20.9 km/h 14.5 mph /  23.3 km/h 62 % 0.0 in /  0 mm
20:46 -5.6 °F /  -20.9 °C -11.5 °F /  -24.2 °C 1014.8 in /  34361.1 hPa Calm   11.3 mph /  18.2 km/h 63 % 0.0 in /  0 mm
20:52 -5.6 °F /  -20.9 °C -11.5 °F /  -24.2 °C 1014.8 in /  34361.1 hPa North 11.1 mph /  17.9 km/h 14.5 mph /  23.3 km/h 63 % 0.0 in /  0 mm
20:58 -5.7 °F /  -20.9 °C -11.6 °F /  -24.2 °C 1014.8 in /  34361.1 hPa NNE 9.7 mph /  15.6 km/h 14.5 mph /  23.3 km/h 63 % 0.0 in /  0 mm
21:04 -5.7 °F /  -20.9 °C -11.6 °F /  -24.2 °C 1014.8 in /  34361.1 hPa NNE 11.1 mph /  17.9 km/h 17.7 mph /  28.5 km/h 63 % 0.0 in /  0 mm
21:10 -5.7 °F /  -20.9 °C -11.6 °F /  -24.2 °C 1014.8 in /  34361.1 hPa NNE 13.0 mph /  20.9 km/h 22.5 mph /  36.2 km/h 63 % 0.0 in /  0 mm
21:16 -5.8 °F /  -21 °C -11.7 °F /  -24.3 °C 1014.8 in /  34361.1 hPa NNE 13.0 mph /  20.9 km/h 20.9 mph /  33.6 km/h 63 % 0.0 in /  0 mm
21:22 -5.8 °F /  -21 °C -11.5 °F /  -24.2 °C 1014.8 in /  34361.1 hPa NE 17.7 mph /  28.5 km/h 17.7 mph /  28.5 km/h 64 % 0.0 in /  0 mm
21:28 -5.9 °F /  -21.1 °C -11.6 °F /  -24.2 °C 1014.8 in /  34361.1 hPa NNE 3.2 mph /  5.1 km/h 16.1 mph /  25.9 km/h 64 % 0.0 in /  0 mm
21:34 -6.0 °F /  -21.1 °C -11.5 °F /  -24.2 °C 1014.8 in /  34361.1 hPa NNE 17.7 mph /  28.5 km/h 24.1 mph /  38.8 km/h 65 % 0.0 in /  0 mm
21:40 -6.1 °F /  -21.2 °C -11.6 °F /  -24.2 °C 1014.8 in /  34361.1 hPa NE 14.3 mph /  23 km/h 20.9 mph /  33.6 km/h 65 % 0.0 in /  0 mm
21:46 -6.1 °F /  -21.2 °C -11.6 °F /  -24.2 °C 1014.8 in /  34361.1 hPa NNE 11.1 mph /  17.9 km/h 19.3 mph /  31.1 km/h 65 % 0.0 in /  0 mm
21:52 -6.1 °F /  -21.2 °C -11.6 °F /  -24.2 °C 1014.8 in /  34361.1 hPa NE 4.7 mph /  7.6 km/h 19.3 mph /  31.1 km/h 65 % 0.0 in /  0 mm
21:58 -6.2 °F /  -21.2 °C -11.7 °F /  -24.3 °C 1014.8 in /  34361.1 hPa NE 13.0 mph /  20.9 km/h 17.7 mph /  28.5 km/h 65 % 0.0 in /  0 mm
22:06 -6.3 °F /  -21.3 °C -11.6 °F /  -24.2 °C 1014.8 in /  34361.1 hPa North 11.1 mph /  17.9 km/h 16.1 mph /  25.9 km/h 66 % 0.0 in /  0 mm
22:12 -6.3 °F /  -21.3 °C -11.6 °F /  -24.2 °C 1014.8 in /  34361.1 hPa NNE 7.9 mph /  12.7 km/h 16.1 mph /  25.9 km/h 66 % 0.0 in /  0 mm
22:18 -6.4 °F /  -21.3 °C -11.7 °F /  -24.3 °C 1014.8 in /  34361.1 hPa NE 3.2 mph /  5.1 km/h 19.3 mph /  31.1 km/h 66 % 0.0 in /  0 mm
22:24 -6.4 °F /  -21.3 °C -11.5 °F /  -24.2 °C 1014.8 in /  34361.1 hPa North 1.4 mph /  2.3 km/h 11.3 mph /  18.2 km/h 67 % 0.0 in /  0 mm
22:30 -6.6 °F /  -21.4 °C -11.7 °F /  -24.3 °C 1014.8 in /  34361.1 hPa NE 7.9 mph /  12.7 km/h 11.3 mph /  18.2 km/h 67 % 0.0 in /  0 mm
22:36 -6.6 °F /  -21.4 °C -11.7 °F /  -24.3 °C 1014.8 in /  34361.1 hPa NNE 6.4 mph /  10.3 km/h 11.3 mph /  18.2 km/h 67 % 0.0 in /  0 mm
22:42 -6.7 °F /  -21.5 °C -11.6 °F /  -24.2 °C 1014.8 in /  34361.1 hPa NE 6.4 mph /  10.3 km/h 11.3 mph /  18.2 km/h 68 % 0.0 in /  0 mm
22:48 -6.8 °F /  -21.6 °C -11.7 °F /  -24.3 °C 1014.8 in /  34361.1 hPa NNE 7.9 mph /  12.7 km/h 11.3 mph /  18.2 km/h 68 % 0.0 in /  0 mm
22:54 -6.8 °F /  -21.6 °C -11.7 °F /  -24.3 °C 1014.4 in /  34347.6 hPa NNE 7.9 mph /  12.7 km/h 11.3 mph /  18.2 km/h 68 % 0.0 in /  0 mm
23:00 -6.9 °F /  -21.6 °C -11.6 °F /  -24.2 °C 1014.4 in /  34347.6 hPa NNE 6.4 mph /  10.3 km/h 8.0 mph /  12.9 km/h 69 % 0.0 in /  0 mm
23:06 -7.0 °F /  -21.7 °C -11.7 °F /  -24.3 °C 1014.8 in /  34361.1 hPa NNE 4.7 mph /  7.6 km/h 8.0 mph /  12.9 km/h 69 % 0.0 in /  0 mm
23:12 -7.1 °F /  -21.7 °C -11.8 °F /  -24.3 °C 1014.4 in /  34347.6 hPa NE 6.4 mph /  10.3 km/h 8.0 mph /  12.9 km/h 69 % 0.0 in /  0 mm
23:18 -7.1 °F /  -21.7 °C -11.6 °F /  -24.2 °C 1014.4 in /  34347.6 hPa NNE 4.7 mph /  7.6 km/h 9.7 mph /  15.6 km/h 70 % 0.0 in /  0 mm
23:24 -7.2 °F /  -21.8 °C -11.7 °F /  -24.3 °C 1014.8 in /  34361.1 hPa NE 3.2 mph /  5.1 km/h 8.0 mph /  12.9 km/h 70 % 0.0 in /  0 mm
23:30 -7.2 °F /  -21.8 °C -11.7 °F /  -24.3 °C 1014.8 in /  34361.1 hPa NE 1.4 mph /  2.3 km/h 8.0 mph /  12.9 km/h 70 % 0.0 in /  0 mm
23:36 -7.3 °F /  -21.8 °C -11.8 °F /  -24.3 °C 1014.8 in /  34361.1 hPa NE 4.7 mph /  7.6 km/h 9.7 mph /  15.6 km/h 70 % 0.0 in /  0 mm
23:42 -7.3 °F /  -21.8 °C -11.7 °F /  -24.3 °C 1014.4 in /  34347.6 hPa NE 6.4 mph /  10.3 km/h 9.7 mph /  15.6 km/h 71 % 0.0 in /  0 mm
23:48 -7.3 °F /  -21.8 °C -11.7 °F /  -24.3 °C 1014.4 in /  34347.6 hPa NNE 4.7 mph /  7.6 km/h 9.7 mph /  15.6 km/h 71 % 0.0 in /  0 mm
23:54 -7.4 °F /  -21.9 °C -11.8 °F /  -24.3 °C 1014.4 in /  34347.6 hPa NE 4.7 mph /  7.6 km/h 6.4 mph /  10.3 km/h 71 % 0.0 in /  0 mm
Meteo18
Compliments of Weather Underground - 4 mb

Script developed by  Jim McMurry - jmcmurry@mwt.net Adapted for the template by  Wim van der Kuil - Leuven-Template.eu

You find our weather info also at:

European Weather Network

Weather Underground

Equipment we use:

Weather-station
Davis Vue

Weather-program
Meteobridge

Weather-server
Raspberry PI 2 B+

Provider
1 and 1

Davis Vue

Meteobridge

Raspberry PI 2 B+

1 and 1